createdAt,value
2023-03-04T00:00:43.388Z,1.00
2023-03-04T00:01:45.039Z,1.00
2023-03-04T00:02:46.553Z,0.90
2023-03-04T00:03:48.041Z,0.90
2023-03-04T00:04:49.573Z,1.00
2023-03-04T00:05:51.312Z,0.90
2023-03-04T00:06:52.977Z,0.90
2023-03-04T00:07:54.856Z,0.90
2023-03-04T00:08:56.998Z,1.00
2023-03-04T00:09:58.517Z,0.90
2023-03-04T00:11:00.054Z,0.90
2023-03-04T00:12:01.707Z,0.90
2023-03-04T00:13:03.188Z,0.80
2023-03-04T00:14:04.777Z,0.80
2023-03-04T00:15:06.661Z,0.80
2023-03-04T00:16:08.592Z,0.80
2023-03-04T00:17:10.447Z,0.90
2023-03-04T00:18:11.858Z,0.90
2023-03-04T00:19:13.237Z,0.90
2023-03-04T00:20:15.231Z,0.90
2023-03-04T00:21:16.763Z,0.80
2023-03-04T00:22:18.200Z,0.80
2023-03-04T00:23:19.678Z,0.80
2023-03-04T00:24:21.452Z,0.70
2023-03-04T00:25:22.838Z,0.70
2023-03-04T00:26:24.276Z,0.70
2023-03-04T00:27:25.999Z,0.70
2023-03-04T00:28:27.992Z,0.80
2023-03-04T00:29:29.789Z,0.80
2023-03-04T00:30:31.759Z,0.70
2023-03-04T00:31:33.576Z,0.70
2023-03-04T00:32:35.360Z,0.80
2023-03-04T00:33:38.513Z,0.80
2023-03-04T00:34:40.676Z,0.80
2023-03-04T00:35:42.397Z,0.70
2023-03-04T00:36:44.739Z,0.80
2023-03-04T00:37:46.415Z,0.80
2023-03-04T00:38:47.917Z,0.80
2023-03-04T00:39:49.520Z,0.80
2023-03-04T00:40:50.949Z,0.70
2023-03-04T00:41:52.371Z,0.70
2023-03-04T00:42:53.918Z,0.70
2023-03-04T00:43:55.323Z,0.80
2023-03-04T00:44:56.771Z,0.80
2023-03-04T00:45:58.588Z,0.90
2023-03-04T00:47:00.265Z,0.80
2023-03-04T00:48:01.756Z,0.80
2023-03-04T00:49:03.913Z,0.70
2023-03-04T00:50:05.956Z,0.70
2023-03-04T00:51:07.739Z,0.70
2023-03-04T00:52:09.220Z,0.70
2023-03-04T00:53:11.229Z,0.70
2023-03-04T00:54:12.684Z,0.70
2023-03-04T00:55:14.151Z,0.70
2023-03-04T00:56:15.684Z,0.70
2023-03-04T00:57:17.434Z,0.70
2023-03-04T00:58:18.854Z,0.60
2023-03-04T00:59:21.112Z,0.60
2023-03-04T01:00:23.082Z,0.60
2023-03-04T01:01:25.556Z,0.60
2023-03-04T01:02:26.994Z,0.60
2023-03-04T01:03:31.440Z,0.50
2023-03-04T01:04:33.619Z,0.50
2023-03-04T01:05:35.979Z,0.50
2023-03-04T01:06:37.439Z,0.50
2023-03-04T01:07:39.457Z,0.50
2023-03-04T01:08:40.940Z,0.50
2023-03-04T01:09:42.583Z,0.50
2023-03-04T01:10:44.038Z,0.40
2023-03-04T01:11:45.693Z,0.30
2023-03-04T01:12:47.439Z,0.40
2023-03-04T01:13:49.104Z,0.40
2023-03-04T01:14:50.563Z,0.40
2023-03-04T01:15:52.241Z,0.50
2023-03-04T01:16:54.417Z,0.40
2023-03-04T01:17:56.891Z,0.40
2023-03-04T01:18:58.347Z,0.30
2023-03-04T01:19:59.787Z,0.30
2023-03-04T01:21:01.327Z,0.30
2023-03-04T01:22:04.391Z,0.30
2023-03-04T01:23:05.821Z,0.30
2023-03-04T01:24:07.420Z,0.30
2023-03-04T01:25:09.339Z,0.40
2023-03-04T01:26:10.839Z,0.40
2023-03-04T01:27:13.175Z,0.40
2023-03-04T01:28:14.636Z,0.40
2023-03-04T01:29:16.524Z,0.50
2023-03-04T01:30:18.390Z,0.40
2023-03-04T01:31:20.022Z,0.40
2023-03-04T01:32:21.548Z,0.30
2023-03-04T01:33:23.603Z,0.30
2023-03-04T01:34:25.156Z,0.30
2023-03-04T01:35:26.867Z,0.30
2023-03-04T01:36:28.324Z,0.20
2023-03-04T01:37:29.800Z,0.30
2023-03-04T01:38:31.256Z,0.30
2023-03-04T01:39:32.667Z,0.30
2023-03-04T01:40:34.425Z,0.30
2023-03-04T01:41:36.047Z,0.30
2023-03-04T01:42:37.548Z,0.30
2023-03-04T01:43:39.355Z,0.30
2023-03-04T01:44:40.880Z,0.40
2023-03-04T01:45:42.302Z,0.30
2023-03-04T01:46:49.231Z,0.30
2023-03-04T01:47:51.648Z,0.30
2023-03-04T01:48:53.636Z,0.30
2023-03-04T01:49:56.891Z,0.30
2023-03-04T01:50:59.542Z,0.20
2023-03-04T01:52:01.132Z,0.30
2023-03-04T01:53:03.687Z,0.20
2023-03-04T01:54:05.223Z,0.20
2023-03-04T01:55:19.552Z,0.20
2023-03-04T01:56:51.082Z,0.30
2023-03-04T01:57:53.368Z,0.20
2023-03-04T01:59:31.012Z,0.20
2023-03-04T02:00:35.336Z,0.30
2023-03-04T02:01:37.837Z,0.20
2023-03-04T02:02:40.004Z,0.20
2023-03-04T02:03:41.545Z,0.20
2023-03-04T02:04:44.343Z,0.20
2023-03-04T02:05:49.044Z,0.30
2023-03-04T02:06:51.168Z,0.20
2023-03-04T02:07:54.675Z,0.20
2023-03-04T02:08:56.127Z,0.20
2023-03-04T02:09:57.620Z,0.20
2023-03-04T02:10:59.326Z,0.10
2023-03-04T02:12:01.879Z,0.10
2023-03-04T02:13:04.005Z,0.10
2023-03-04T02:14:06.816Z,0.10
2023-03-04T02:15:08.765Z,0.00
2023-03-04T02:16:11.560Z,0.10
2023-03-04T02:17:13.974Z,0.10
2023-03-04T02:18:23.603Z,0.20
2023-03-04T02:20:00.510Z,0.20
2023-03-04T02:21:20.985Z,0.10
2023-03-04T02:22:22.596Z,0.10
2023-03-04T02:23:33.133Z,0.10
2023-03-04T02:24:53.485Z,0.10
2023-03-04T02:26:17.689Z,0.10
2023-03-04T02:27:22.124Z,0.10
2023-03-04T02:28:24.399Z,0.10
2023-03-04T02:29:26.150Z,0.10
2023-03-04T02:30:27.727Z,0.10
2023-03-04T02:31:44.877Z,0.10
2023-03-04T02:32:46.817Z,0.00
2023-03-04T02:33:48.510Z,0.10
2023-03-04T02:34:51.199Z,0.10
2023-03-04T02:35:52.721Z,0.10
2023-03-04T02:36:56.113Z,0.10
2023-03-04T02:37:57.605Z,0.10
2023-03-04T02:39:06.610Z,0.10
2023-03-04T02:40:21.709Z,0.10
2023-03-04T02:41:26.454Z,0.10
2023-03-04T02:42:28.435Z,0.10
2023-03-04T02:43:31.750Z,0.00
2023-03-04T02:44:36.112Z,0.00
2023-03-04T02:45:40.278Z,0.00
2023-03-04T02:46:43.480Z,0.00
2023-03-04T02:47:44.929Z,0.00
2023-03-04T02:48:46.370Z,0.00
2023-03-04T02:49:48.428Z,0.00
2023-03-04T02:50:53.489Z,0.00
2023-03-04T02:52:07.243Z,-0.10
2023-03-04T02:53:08.972Z,0.00
2023-03-04T02:54:18.802Z,-0.10
2023-03-04T02:55:20.249Z,-0.10
2023-03-04T02:56:21.892Z,-0.10
2023-03-04T02:57:24.012Z,-0.20
2023-03-04T02:58:28.783Z,-0.10
2023-03-04T02:59:30.714Z,-0.10
2023-03-04T03:00:32.222Z,-0.10
2023-03-04T03:01:33.716Z,-0.10
2023-03-04T03:02:35.631Z,-0.10
2023-03-04T03:03:37.292Z,-0.10
2023-03-04T03:04:40.827Z,0.00
2023-03-04T03:05:46.300Z,0.00
2023-03-04T03:06:48.566Z,0.10
2023-03-04T03:07:50.321Z,0.00
2023-03-04T03:08:51.913Z,-0.10
2023-03-04T03:09:54.108Z,-0.10
2023-03-04T03:10:55.565Z,-0.10
2023-03-04T03:11:58.306Z,-0.20
2023-03-04T03:13:00.135Z,-0.10
2023-03-04T03:14:01.813Z,-0.10
2023-03-04T03:15:03.595Z,-0.20
2023-03-04T03:16:05.422Z,-0.20
2023-03-04T03:17:06.921Z,-0.10
2023-03-04T03:18:11.552Z,0.00
2023-03-04T03:19:13.028Z,-0.10
2023-03-04T03:20:16.022Z,-0.10
2023-03-04T03:21:17.552Z,-0.20
2023-03-04T03:22:19.330Z,-0.10
2023-03-04T03:23:21.074Z,-0.20
2023-03-04T03:24:22.532Z,-0.20
2023-03-04T03:25:24.424Z,-0.20
2023-03-04T03:26:28.449Z,-0.20
2023-03-04T03:27:29.996Z,-0.20
2023-03-04T03:28:32.283Z,-0.10
2023-03-04T03:29:35.157Z,-0.10
2023-03-04T03:30:36.643Z,-0.20
2023-03-04T03:31:41.083Z,-0.20
2023-03-04T03:32:42.521Z,-0.10
2023-03-04T03:33:43.985Z,-0.10
2023-03-04T03:34:45.682Z,-0.10
2023-03-04T03:35:47.727Z,-0.10
2023-03-04T03:36:49.258Z,-0.10
2023-03-04T03:37:50.950Z,-0.10
2023-03-04T03:38:52.447Z,-0.10
2023-03-04T03:39:53.919Z,-0.20
2023-03-04T03:40:55.465Z,-0.20
2023-03-04T03:41:57.012Z,-0.20
2023-03-04T03:42:58.480Z,-0.20
2023-03-04T03:44:00.064Z,-0.20
2023-03-04T03:45:01.665Z,-0.10
2023-03-04T03:46:03.322Z,-0.10
2023-03-04T03:47:04.830Z,-0.20
2023-03-04T03:48:06.641Z,-0.20
2023-03-04T03:49:08.063Z,-0.20
2023-03-04T03:50:10.402Z,-0.20
2023-03-04T03:51:11.831Z,-0.20
2023-03-04T03:52:13.430Z,-0.20
2023-03-04T03:53:15.122Z,-0.20
2023-03-04T03:54:16.520Z,-0.20
2023-03-04T03:55:18.000Z,-0.30
2023-03-04T03:56:19.496Z,-0.30
2023-03-04T03:57:20.878Z,-0.30
2023-03-04T03:58:23.649Z,-0.30
2023-03-04T03:59:25.181Z,-0.30
2023-03-04T04:00:26.854Z,-0.30
2023-03-04T04:01:28.304Z,-0.20
2023-03-04T04:02:29.801Z,-0.20
2023-03-04T04:03:31.553Z,-0.20
2023-03-04T04:04:32.984Z,-0.20
2023-03-04T04:05:34.714Z,-0.20
2023-03-04T04:06:36.356Z,-0.20
2023-03-04T04:07:38.613Z,-0.30
2023-03-04T04:08:40.074Z,-0.30
2023-03-04T04:09:41.441Z,-0.30
2023-03-04T04:10:43.221Z,-0.30
2023-03-04T04:11:44.624Z,-0.40
2023-03-04T04:12:46.433Z,-0.40
2023-03-04T04:13:47.813Z,-0.40
2023-03-04T04:14:49.841Z,-0.40
2023-03-04T04:15:54.645Z,-0.50
2023-03-04T04:16:56.255Z,-0.50
2023-03-04T04:17:57.769Z,-0.50
2023-03-04T04:18:59.240Z,-0.40
2023-03-04T04:20:00.752Z,-0.50
2023-03-04T04:21:02.293Z,-0.50
2023-03-04T04:22:04.310Z,-0.50
2023-03-04T04:23:05.966Z,-0.50
2023-03-04T04:24:07.539Z,-0.50
2023-03-04T04:25:10.877Z,-0.60
2023-03-04T04:26:12.634Z,-0.50
2023-03-04T04:27:14.344Z,-0.50
2023-03-04T04:28:16.180Z,-0.60
2023-03-04T04:29:17.705Z,-0.60
2023-03-04T04:30:19.239Z,-0.50
2023-03-04T04:31:20.661Z,-0.50
2023-03-04T04:32:22.175Z,-0.50
2023-03-04T04:33:23.982Z,-0.50
2023-03-04T04:34:26.186Z,-0.60
2023-03-04T04:35:28.635Z,-0.60
2023-03-04T04:36:30.142Z,-0.60
2023-03-04T04:37:31.814Z,-0.70
2023-03-04T04:38:33.297Z,-0.60
2023-03-04T04:39:35.145Z,-0.60
2023-03-04T04:40:36.870Z,-0.60
2023-03-04T04:41:41.017Z,-0.60
2023-03-04T04:42:42.708Z,-0.60
2023-03-04T04:43:44.264Z,-0.50
2023-03-04T04:44:45.705Z,-0.50
2023-03-04T04:45:47.448Z,-0.50
2023-03-04T04:46:48.906Z,-0.50
2023-03-04T04:47:51.222Z,-0.60
2023-03-04T04:48:52.652Z,-0.60
2023-03-04T04:49:54.163Z,-0.60
2023-03-04T04:50:56.717Z,-0.60
2023-03-04T04:51:58.224Z,-0.60
2023-03-04T04:53:00.082Z,-0.50
2023-03-04T04:54:02.318Z,-0.50
2023-03-04T04:55:04.315Z,-0.50
2023-03-04T04:56:15.460Z,-0.50
2023-03-04T04:57:17.212Z,-0.50
2023-03-04T04:58:18.610Z,-0.50
2023-03-04T04:59:20.445Z,-0.50
2023-03-04T05:00:22.018Z,-0.50
2023-03-04T05:01:24.084Z,-0.50
2023-03-04T05:02:25.636Z,-0.60
2023-03-04T05:03:27.075Z,-0.50
2023-03-04T05:04:28.489Z,-0.60
2023-03-04T05:05:30.176Z,-0.60
2023-03-04T05:06:31.682Z,-0.60
2023-03-04T05:07:34.665Z,-0.60
2023-03-04T05:08:36.637Z,-0.70
2023-03-04T05:09:38.322Z,-0.70
2023-03-04T05:10:39.816Z,-0.60
2023-03-04T05:11:41.802Z,-0.70
2023-03-04T05:12:45.156Z,-0.60
2023-03-04T05:13:47.705Z,-0.60
2023-03-04T05:14:49.188Z,-0.60
2023-03-04T05:15:55.363Z,-0.50
2023-03-04T05:16:56.836Z,-0.60
2023-03-04T05:17:58.339Z,-0.60
2023-03-04T05:18:59.758Z,-0.60
2023-03-04T05:20:01.362Z,-0.50
2023-03-04T05:21:04.110Z,-0.60
2023-03-04T05:22:05.661Z,-0.60
2023-03-04T05:23:07.040Z,-0.70
2023-03-04T05:24:08.643Z,-0.60
2023-03-04T05:25:10.709Z,-0.70
2023-03-04T05:26:15.561Z,-0.70
2023-03-04T05:27:16.976Z,-0.80
2023-03-04T05:28:18.922Z,-0.80
2023-03-04T05:29:20.502Z,-0.80
2023-03-04T05:30:21.967Z,-0.80
2023-03-04T05:31:23.741Z,-0.80
2023-03-04T05:32:25.285Z,-0.80
2023-03-04T05:33:27.250Z,-0.80
2023-03-04T05:34:28.739Z,-0.80
2023-03-04T05:35:30.215Z,-0.90
2023-03-04T05:36:31.888Z,-0.90
2023-03-04T05:37:33.270Z,-0.90
2023-03-04T05:38:35.167Z,-0.90
2023-03-04T05:39:36.569Z,-0.90
2023-03-04T05:40:38.962Z,-0.90
2023-03-04T05:41:40.320Z,-0.90
2023-03-04T05:42:41.791Z,-0.80
2023-03-04T05:43:43.681Z,-0.80
2023-03-04T05:44:45.713Z,-0.90
2023-03-04T05:45:49.869Z,-0.90
2023-03-04T05:46:51.402Z,-0.90
2023-03-04T05:47:53.853Z,-0.90
2023-03-04T05:48:55.453Z,-0.90
2023-03-04T05:49:58.066Z,-0.90
2023-03-04T05:51:01.430Z,-0.90
2023-03-04T05:52:02.978Z,-0.90
2023-03-04T05:53:04.625Z,-0.90
2023-03-04T05:54:06.116Z,-0.80
2023-03-04T05:55:08.291Z,-0.80
2023-03-04T05:56:11.675Z,-0.80
2023-03-04T05:57:13.121Z,-0.80
2023-03-04T05:58:15.959Z,-0.80
2023-03-04T05:59:20.566Z,-0.80
2023-03-04T06:00:22.150Z,-0.90
2023-03-04T06:01:23.808Z,-0.90
2023-03-04T06:02:25.546Z,-0.90
2023-03-04T06:03:27.208Z,-0.90
2023-03-04T06:04:28.592Z,-0.90
2023-03-04T06:05:30.072Z,-0.90
2023-03-04T06:06:31.536Z,-1.00
2023-03-04T06:07:33.457Z,-1.00
2023-03-04T06:08:35.632Z,-0.90
2023-03-04T06:09:37.182Z,-0.90
2023-03-04T06:10:40.048Z,-0.90
2023-03-04T06:11:41.905Z,-0.90
2023-03-04T06:12:43.887Z,-0.90
2023-03-04T06:13:45.488Z,-0.90
2023-03-04T06:14:47.066Z,-0.80
2023-03-04T06:15:53.392Z,-0.80
2023-03-04T06:16:54.912Z,-0.80
2023-03-04T06:17:56.658Z,-0.80
2023-03-04T06:18:58.189Z,-0.90
2023-03-04T06:19:59.667Z,-0.90
2023-03-04T06:21:03.427Z,-0.80
2023-03-04T06:22:05.491Z,-0.80
2023-03-04T06:23:06.977Z,-0.80
2023-03-04T06:24:08.445Z,-0.70
2023-03-04T06:25:10.170Z,-0.70
2023-03-04T06:26:15.359Z,-0.70
2023-03-04T06:27:16.887Z,-0.70
2023-03-04T06:28:18.417Z,-0.70
2023-03-04T06:29:20.249Z,-0.80
2023-03-04T06:30:22.248Z,-0.80
2023-03-04T06:31:24.123Z,-0.80
2023-03-04T06:32:25.860Z,-0.80
2023-03-04T06:33:27.426Z,-0.70
2023-03-04T06:34:29.910Z,-0.70
2023-03-04T06:35:31.433Z,-0.60
2023-03-04T06:36:33.318Z,-0.60
2023-03-04T06:37:35.494Z,-0.60
2023-03-04T06:38:37.100Z,-0.60
2023-03-04T06:39:38.569Z,-0.60
2023-03-04T06:40:40.132Z,-0.60
2023-03-04T06:41:41.859Z,-0.60
2023-03-04T06:42:43.764Z,-0.60
2023-03-04T06:43:45.348Z,-0.60
2023-03-04T06:44:49.963Z,-0.70
2023-03-04T06:45:51.693Z,-0.70
2023-03-04T06:46:53.324Z,-0.70
2023-03-04T06:47:54.777Z,-0.70
2023-03-04T06:48:57.069Z,-0.70
2023-03-04T06:49:58.573Z,-0.70
2023-03-04T06:51:09.215Z,-0.70
2023-03-04T06:52:12.824Z,-0.70
2023-03-04T06:53:14.246Z,-0.70
2023-03-04T06:54:15.951Z,-0.60
2023-03-04T06:55:17.545Z,-0.60
2023-03-04T06:56:19.211Z,-0.50
2023-03-04T06:57:20.604Z,-0.50
2023-03-04T06:58:22.308Z,-0.60
2023-03-04T06:59:23.804Z,-0.60
2023-03-04T07:00:26.216Z,-0.60
2023-03-04T07:01:29.540Z,-0.60
2023-03-04T07:02:32.923Z,-0.50
2023-03-04T07:03:34.615Z,-0.50
2023-03-04T07:04:36.422Z,-0.50
2023-03-04T07:05:37.802Z,-0.50
2023-03-04T07:06:39.264Z,-0.40
2023-03-04T07:07:40.798Z,-0.40
2023-03-04T07:08:43.274Z,-0.40
2023-03-04T07:09:45.144Z,-0.40
2023-03-04T07:10:46.604Z,-0.40
2023-03-04T07:11:48.127Z,-0.40
2023-03-04T07:12:50.009Z,-0.40
2023-03-04T07:13:51.855Z,-0.30
2023-03-04T07:14:53.731Z,-0.30
2023-03-04T07:15:55.224Z,-0.20
2023-03-04T07:16:57.123Z,-0.20
2023-03-04T07:17:58.767Z,-0.10
2023-03-04T07:19:00.296Z,-0.10
2023-03-04T07:20:02.165Z,-0.10
2023-03-04T07:21:04.994Z,0.00
2023-03-04T07:22:06.524Z,0.00
2023-03-04T07:23:08.124Z,0.00
2023-03-04T07:24:09.554Z,-0.10
2023-03-04T07:25:11.476Z,-0.10
2023-03-04T07:26:13.157Z,-0.10
2023-03-04T07:27:14.550Z,-0.10
2023-03-04T07:28:17.455Z,-0.10
2023-03-04T07:29:19.071Z,-0.10
2023-03-04T07:30:20.751Z,-0.10
2023-03-04T07:31:30.347Z,0.00
2023-03-04T07:32:34.439Z,-0.10
2023-03-04T07:33:36.480Z,-0.10
2023-03-04T07:34:38.210Z,0.00
2023-03-04T07:35:40.605Z,0.10
2023-03-04T07:36:42.542Z,0.10
2023-03-04T07:37:44.230Z,0.10
2023-03-04T07:38:47.913Z,0.20
2023-03-04T07:39:49.716Z,0.20
2023-03-04T07:40:58.780Z,0.30
2023-03-04T07:42:00.332Z,0.40
2023-03-04T07:43:01.821Z,0.30
2023-03-04T07:44:04.891Z,0.40
2023-03-04T07:45:09.802Z,0.40
2023-03-04T07:46:11.504Z,0.50
2023-03-04T07:47:12.985Z,0.50
2023-03-04T07:48:14.741Z,0.50
2023-03-04T07:49:16.456Z,0.50
2023-03-04T07:50:18.522Z,0.40
2023-03-04T07:51:21.839Z,0.50
2023-03-04T07:52:23.373Z,0.50
2023-03-04T07:53:24.968Z,0.50
2023-03-04T07:54:26.863Z,0.40
2023-03-04T07:55:30.591Z,0.50
2023-03-04T07:56:34.647Z,0.40
2023-03-04T07:57:38.587Z,0.30
2023-03-04T07:58:40.087Z,0.30
2023-03-04T07:59:41.585Z,0.30
2023-03-04T08:00:43.014Z,0.30
2023-03-04T08:01:45.630Z,0.30
2023-03-04T08:02:47.912Z,0.40
2023-03-04T08:03:49.827Z,0.30
2023-03-04T08:04:51.251Z,0.40
2023-03-04T08:05:52.775Z,0.40
2023-03-04T08:06:54.227Z,0.30
2023-03-04T08:07:57.935Z,0.20
2023-03-04T08:09:02.224Z,0.10
2023-03-04T08:10:04.225Z,0.10
2023-03-04T08:11:08.626Z,0.10
2023-03-04T08:12:10.260Z,0.20
2023-03-04T08:13:11.778Z,0.10
2023-03-04T08:14:13.900Z,0.10
2023-03-04T08:15:15.504Z,0.10
2023-03-04T08:16:19.442Z,0.10
2023-03-04T08:17:21.219Z,0.10
2023-03-04T08:18:22.629Z,0.10
2023-03-04T08:19:25.884Z,0.10
2023-03-04T08:20:28.336Z,0.10
2023-03-04T08:21:30.903Z,0.10
2023-03-04T08:22:32.528Z,0.10
2023-03-04T08:23:33.933Z,0.20
2023-03-04T08:24:35.469Z,0.30
2023-03-04T08:25:41.857Z,0.30
2023-03-04T08:26:46.685Z,0.30
2023-03-04T08:27:48.388Z,0.40
2023-03-04T08:28:50.706Z,0.50
2023-03-04T08:29:52.059Z,0.50
2023-03-04T08:30:54.503Z,0.50
2023-03-04T08:31:56.725Z,0.60
2023-03-04T08:32:58.218Z,0.50
2023-03-04T08:34:00.542Z,0.50
2023-03-04T08:35:02.522Z,0.50
2023-03-04T08:36:05.221Z,0.50
2023-03-04T08:37:07.456Z,0.60
2023-03-04T08:38:08.871Z,0.70
2023-03-04T08:39:13.868Z,0.70
2023-03-04T08:40:15.881Z,0.80
2023-03-04T08:41:17.330Z,0.70
2023-03-04T08:42:18.677Z,0.80
2023-03-04T08:43:20.319Z,0.70
2023-03-04T08:44:21.821Z,0.80
2023-03-04T08:45:23.451Z,0.70
2023-03-04T08:46:24.913Z,0.70
2023-03-04T08:47:26.342Z,0.70
2023-03-04T08:48:27.803Z,0.70
2023-03-04T08:49:29.293Z,0.80
2023-03-04T08:50:30.847Z,0.80
2023-03-04T08:51:32.381Z,0.80
2023-03-04T08:52:33.872Z,0.80
2023-03-04T08:53:35.441Z,0.80
2023-03-04T08:54:36.899Z,0.80
2023-03-04T08:55:40.054Z,0.90
2023-03-04T08:56:41.858Z,0.90
2023-03-04T08:57:43.330Z,0.90
2023-03-04T08:58:44.837Z,1.00
2023-03-04T08:59:46.413Z,0.90
2023-03-04T09:00:51.647Z,0.90
2023-03-04T09:01:53.151Z,0.80
2023-03-04T09:02:55.982Z,0.80
2023-03-04T09:03:57.573Z,0.80
2023-03-04T09:04:58.987Z,0.80
2023-03-04T09:06:02.524Z,0.80
2023-03-04T09:07:04.219Z,0.80
2023-03-04T09:08:06.288Z,0.90
2023-03-04T09:09:08.016Z,0.80
2023-03-04T09:10:10.242Z,0.80
2023-03-04T09:11:12.717Z,0.90
2023-03-04T09:12:14.588Z,1.00
2023-03-04T09:13:16.567Z,1.20
2023-03-04T09:14:18.025Z,1.40
2023-03-04T09:15:19.825Z,1.60
2023-03-04T09:16:21.554Z,1.70
2023-03-04T09:17:23.381Z,1.80
2023-03-04T09:18:25.899Z,1.90
2023-03-04T09:19:28.003Z,2.00
2023-03-04T09:20:30.230Z,2.10
2023-03-04T09:21:31.663Z,2.20
2023-03-04T09:22:33.319Z,2.40
2023-03-04T09:23:35.559Z,2.40
2023-03-04T09:24:37.149Z,2.40
2023-03-04T09:25:40.007Z,2.50
2023-03-04T09:26:41.522Z,2.50
2023-03-04T09:27:42.964Z,2.50
2023-03-04T09:28:44.578Z,2.50
2023-03-04T09:29:46.072Z,2.60
2023-03-04T09:30:48.566Z,2.50
2023-03-04T09:31:50.267Z,2.50
2023-03-04T09:32:51.724Z,2.40
2023-03-04T09:33:54.118Z,2.40
2023-03-04T09:34:55.540Z,2.40
2023-03-04T09:35:59.079Z,2.40
2023-03-04T09:37:01.196Z,2.30
2023-03-04T09:38:03.033Z,2.30
2023-03-04T09:39:05.399Z,2.30
2023-03-04T09:40:08.226Z,2.20
2023-03-04T09:41:16.294Z,2.00
2023-03-04T09:42:42.868Z,1.90
2023-03-04T09:43:45.484Z,1.80
2023-03-04T09:44:47.650Z,1.80
2023-03-04T09:46:02.835Z,1.70
2023-03-04T09:47:16.457Z,1.80
2023-03-04T09:48:23.088Z,1.80
2023-03-04T09:49:25.612Z,1.80
2023-03-04T09:50:31.875Z,1.90
2023-03-04T09:51:44.911Z,1.90
2023-03-04T09:53:02.274Z,1.90
2023-03-04T09:54:26.458Z,2.10
2023-03-04T09:55:47.626Z,2.10
2023-03-04T09:56:51.172Z,2.10
2023-03-04T09:58:26.857Z,2.00
2023-03-04T09:59:40.466Z,1.80
2023-03-04T10:01:04.077Z,1.80
2023-03-04T10:02:23.535Z,1.80
2023-03-04T10:03:33.317Z,1.70
2023-03-04T10:04:47.250Z,1.70
2023-03-04T10:05:57.414Z,1.80
2023-03-04T10:07:01.417Z,1.90
2023-03-04T10:08:27.834Z,1.80
2023-03-04T10:09:32.649Z,1.90
2023-03-04T10:10:39.883Z,1.90
2023-03-04T10:11:55.583Z,2.00
2023-03-04T10:12:59.534Z,1.80
2023-03-04T10:14:23.337Z,1.80
2023-03-04T10:15:33.924Z,1.80
2023-03-04T10:16:54.054Z,1.70
2023-03-04T10:18:13.807Z,1.70
2023-03-04T10:19:15.169Z,1.60
2023-03-04T10:20:23.693Z,1.70
2023-03-04T10:21:39.045Z,1.50
2023-03-04T10:22:51.814Z,1.50
2023-03-04T10:23:54.369Z,1.50
2023-03-04T10:24:58.011Z,1.60
2023-03-04T10:26:01.919Z,1.70
2023-03-04T10:27:10.482Z,1.70
2023-03-04T10:28:14.958Z,1.70
2023-03-04T10:29:19.101Z,1.60
2023-03-04T10:30:27.044Z,1.60
2023-03-04T10:31:38.680Z,1.60
2023-03-04T10:32:47.342Z,1.80
2023-03-04T10:33:49.457Z,1.90
2023-03-04T10:34:50.851Z,2.00
2023-03-04T10:36:15.568Z,2.10
2023-03-04T10:37:17.068Z,2.20
2023-03-04T10:38:21.098Z,2.00
2023-03-04T10:39:31.476Z,2.00
2023-03-04T10:40:39.453Z,1.90
2023-03-04T10:41:56.893Z,1.80
2023-03-04T10:43:00.425Z,1.80
2023-03-04T10:44:16.330Z,1.80
2023-03-04T10:45:27.745Z,1.80
2023-03-04T10:46:30.738Z,2.00
2023-03-04T10:47:33.179Z,2.00
2023-03-04T10:48:34.713Z,2.10
2023-03-04T10:49:56.873Z,2.30
2023-03-04T10:51:24.415Z,2.50
2023-03-04T10:52:29.543Z,2.50
2023-03-04T10:53:39.037Z,2.50
2023-03-04T10:54:50.052Z,2.30
2023-03-04T10:55:51.604Z,2.30
2023-03-04T10:56:59.999Z,2.10
2023-03-04T10:58:06.606Z,1.90
2023-03-04T10:59:45.679Z,1.90
2023-03-04T11:01:06.424Z,1.90
2023-03-04T11:02:32.861Z,1.90
2023-03-04T11:03:36.926Z,2.00
2023-03-04T11:04:38.654Z,2.00
2023-03-04T11:05:40.141Z,2.00
2023-03-04T11:06:41.860Z,2.00
2023-03-04T11:07:57.326Z,2.00
2023-03-04T11:09:00.625Z,2.00
2023-03-04T11:10:16.222Z,2.00
2023-03-04T11:11:27.598Z,2.00
2023-03-04T11:12:33.978Z,1.80
2023-03-04T11:13:35.490Z,1.80
2023-03-04T11:14:49.051Z,1.80
2023-03-04T11:15:50.526Z,1.60
2023-03-04T11:16:56.704Z,1.70
2023-03-04T11:18:02.855Z,1.70
2023-03-04T11:19:13.548Z,1.70
2023-03-04T11:20:38.060Z,1.90
2023-03-04T11:21:41.109Z,2.00
2023-03-04T11:22:45.468Z,2.10
2023-03-04T11:24:03.163Z,2.00
2023-03-04T11:25:31.925Z,2.00
2023-03-04T11:26:56.627Z,2.00
2023-03-04T11:28:25.950Z,2.10
2023-03-04T11:29:35.295Z,2.10
2023-03-04T11:30:42.553Z,2.30
2023-03-04T11:31:56.290Z,2.10
2023-03-04T11:33:18.699Z,2.10
2023-03-04T11:34:51.678Z,2.20
2023-03-04T11:36:23.814Z,2.30
2023-03-04T11:37:36.075Z,2.20
2023-03-04T11:38:42.635Z,2.20
2023-03-04T11:39:52.932Z,2.30
2023-03-04T11:40:58.845Z,2.40
2023-03-04T11:42:32.132Z,2.50
2023-03-04T11:43:37.480Z,2.40
2023-03-04T11:44:39.502Z,2.50
2023-03-04T11:46:12.057Z,2.50
2023-03-04T11:47:28.328Z,2.50
2023-03-04T11:48:51.351Z,2.70
2023-03-04T11:50:08.103Z,2.50
2023-03-04T11:51:37.952Z,2.40
2023-03-04T11:53:03.564Z,2.50
2023-03-04T11:54:32.695Z,2.60
2023-03-04T11:55:34.065Z,2.60
2023-03-04T11:56:44.307Z,2.60
2023-03-04T11:58:04.149Z,2.60
2023-03-04T11:59:45.275Z,2.70
2023-03-04T12:01:15.037Z,2.70
2023-03-04T12:02:29.878Z,2.90
2023-03-04T12:04:03.122Z,2.90
2023-03-04T12:05:24.696Z,2.90
2023-03-04T12:06:51.308Z,2.90
2023-03-04T12:07:52.685Z,3.00
2023-03-04T12:08:57.451Z,3.10
2023-03-04T12:10:18.296Z,3.20
2023-03-04T12:11:25.948Z,3.20
2023-03-04T12:12:30.888Z,3.20
2023-03-04T12:13:49.412Z,3.20
2023-03-04T12:15:19.922Z,3.20
2023-03-04T12:16:39.875Z,3.30
2023-03-04T12:17:56.610Z,3.30
2023-03-04T12:19:35.497Z,3.30
2023-03-04T12:20:57.708Z,3.30
2023-03-04T12:22:37.041Z,3.40
2023-03-04T12:23:59.662Z,3.50
2023-03-04T12:25:07.389Z,3.50
2023-03-04T12:26:23.130Z,3.50
2023-03-04T12:27:49.096Z,3.60
2023-03-04T12:29:28.037Z,3.70
2023-03-04T12:30:41.449Z,3.70
2023-03-04T12:31:46.128Z,3.70
2023-03-04T12:32:57.123Z,3.70
2023-03-04T12:34:27.927Z,3.70
2023-03-04T12:36:02.914Z,3.70
2023-03-04T12:37:19.031Z,3.80
2023-03-04T12:38:35.353Z,3.90
2023-03-04T12:39:55.230Z,3.90
2023-03-04T12:41:20.683Z,4.00
2023-03-04T12:43:03.174Z,4.00
2023-03-04T12:44:10.599Z,4.00
2023-03-04T12:45:47.402Z,4.10
2023-03-04T12:47:08.691Z,4.10
2023-03-04T12:48:13.103Z,4.30
2023-03-04T12:49:38.688Z,4.30
2023-03-04T12:51:13.208Z,4.40
2023-03-04T12:52:29.467Z,4.50
2023-03-04T12:54:10.277Z,4.50
2023-03-04T12:55:16.830Z,4.50
2023-03-04T12:56:50.924Z,4.50
2023-03-04T12:57:56.044Z,4.60
2023-03-04T12:58:58.054Z,4.60
2023-03-04T13:00:43.873Z,4.70
2023-03-04T13:01:51.561Z,4.70
2023-03-04T13:03:24.629Z,4.70
2023-03-04T13:04:51.056Z,4.80
2023-03-04T13:06:04.897Z,4.80
2023-03-04T13:07:17.354Z,4.90
2023-03-04T13:08:42.189Z,5.00
2023-03-04T13:09:55.892Z,5.00
2023-03-04T13:11:24.088Z,5.10
2023-03-04T13:12:25.818Z,5.20
2023-03-04T13:13:33.070Z,5.20
2023-03-04T13:14:34.911Z,5.20
2023-03-04T13:15:39.656Z,5.20
2023-03-04T13:16:44.912Z,5.30
2023-03-04T13:17:50.071Z,5.20
2023-03-04T13:18:52.259Z,5.30
2023-03-04T13:20:11.910Z,5.30
2023-03-04T13:21:23.560Z,5.30
2023-03-04T13:22:46.764Z,5.50
2023-03-04T13:23:48.236Z,5.60
2023-03-04T13:24:51.064Z,5.70
2023-03-04T13:25:55.581Z,5.80
2023-03-04T13:26:57.207Z,5.80
2023-03-04T13:28:10.866Z,5.70
2023-03-04T13:29:18.216Z,5.80
2023-03-04T13:30:31.643Z,5.80
2023-03-04T13:31:59.779Z,5.70
2023-03-04T13:33:13.630Z,5.70
2023-03-04T13:34:57.845Z,5.80
2023-03-04T13:36:25.625Z,5.90
2023-03-04T13:37:35.595Z,5.90
2023-03-04T13:38:38.973Z,6.00
2023-03-04T13:39:40.564Z,6.10
2023-03-04T13:40:42.556Z,6.20
2023-03-04T13:41:52.047Z,6.20
2023-03-04T13:42:53.818Z,6.20
2023-03-04T13:44:31.929Z,6.20
2023-03-04T13:45:35.796Z,6.30
2023-03-04T13:46:42.819Z,6.30
2023-03-04T13:47:46.330Z,6.40
2023-03-04T13:48:50.613Z,6.30
2023-03-04T13:50:21.274Z,6.40
2023-03-04T13:51:45.244Z,6.50
2023-03-04T13:52:46.911Z,6.60
2023-03-04T13:53:58.588Z,6.70
2023-03-04T13:55:31.021Z,6.70
2023-03-04T13:57:00.394Z,6.80
2023-03-04T13:58:12.990Z,6.80
2023-03-04T13:59:42.027Z,6.90
2023-03-04T14:00:54.820Z,6.80
2023-03-04T14:01:56.805Z,6.80
2023-03-04T14:03:12.956Z,6.80
2023-03-04T14:04:29.350Z,6.80
2023-03-04T14:05:30.968Z,6.70
2023-03-04T14:06:32.693Z,6.80
2023-03-04T14:07:37.377Z,6.90
2023-03-04T14:08:38.891Z,6.90
2023-03-04T14:09:40.595Z,7.00
2023-03-04T14:10:42.568Z,7.10
2023-03-04T14:11:44.418Z,7.20
2023-03-04T14:12:55.686Z,7.30
2023-03-04T14:13:59.802Z,7.30
2023-03-04T14:15:18.897Z,7.40
2023-03-04T14:16:22.107Z,7.50
2023-03-04T14:17:33.200Z,7.60
2023-03-04T14:18:34.859Z,7.50
2023-03-04T14:19:44.881Z,7.60
2023-03-04T14:20:49.650Z,7.70
2023-03-04T14:21:51.325Z,7.80
2023-03-04T14:22:53.492Z,7.90
2023-03-04T14:24:04.333Z,7.90
2023-03-04T14:25:28.410Z,8.00
2023-03-04T14:26:31.141Z,8.10
2023-03-04T14:27:36.428Z,8.10